Time;durP1;ratioP1;P1;durP2;ratioP2;P2;SDS_P1;SDS_P2;PMS_P1;PMS_P2;Temp;Humidity;BMP_temperature;BMP_pressure;BME280_temperature;BME280_humidity;BME280_pressure;Samples;Min_cycle;Max_cycle;Signal;HPM_P1;HPM_P2
2022/01/06 00:02:04;;;;;;;31.15;13.35;;;;;;;0.86;77.17;95426.92;1657791;85;21047;-81
2022/01/06 00:04:29;;;;;;;26.70;13.03;;;;;;;0.87;77.28;95414.45;1640670;85;21035;-81
2022/01/06 00:06:55;;;;;;;11.97;6.50;;;;;;;0.89;77.05;95405.69;1643869;85;21436;-82
2022/01/06 00:09:21;;;;;;;10.48;5.50;;;;;;;0.89;77.10;95405.69;1662534;85;21031;-81
2022/01/06 00:11:48;;;;;;;14.90;7.78;;;;;;;0.92;77.11;95405.06;1637821;85;21092;-81
2022/01/06 00:14:22;;;;;;;14.90;8.03;;;;;;;0.93;77.05;95410.03;1642731;85;21054;-81
2022/01/06 00:24:25;;;;;;;14.53;8.10;;;;;;;1.01;77.08;95425.94;1605645;87;21089;-81
2022/01/06 00:26:50;;;;;;;12.93;6.33;;;;;;;1.02;77.03;95428.83;1611279;88;20980;-81
2022/01/06 00:29:17;;;;;;;9.88;5.92;;;;;;;1.03;76.70;95436.35;1614201;88;21059;-81
2022/01/06 00:31:43;;;;;;;12.07;6.20;;;;;;;1.06;77.13;95434.77;1618789;88;21381;-81
2022/01/06 00:34:10;;;;;;;7.37;4.65;;;;;;;1.08;76.88;95434.63;1608539;88;21069;-83
2022/01/06 00:36:40;;;;;;;14.58;8.33;;;;;;;1.07;76.93;95444.05;1625782;88;21109;-81
2022/01/06 00:39:07;;;;;;;13.53;6.50;;;;;;;1.06;77.09;95435.25;1611762;88;21168;-81
2022/01/06 00:41:34;;;;;;;7.03;4.15;;;;;;;1.05;76.93;95439.56;1621327;88;21061;-81
2022/01/06 00:44:02;;;;;;;17.73;10.20;;;;;;;1.06;77.08;95443.73;1612168;88;21104;-81
2022/01/06 00:46:29;;;;;;;12.03;6.90;;;;;;;1.06;77.02;95437.33;1617313;87;21090;-81
2022/01/06 00:48:55;;;;;;;10.00;4.50;;;;;;;1.05;77.01;95443.40;1622884;88;21031;-81
2022/01/06 00:51:21;;;;;;;13.45;6.80;;;;;;;1.05;76.55;95438.76;1619047;88;21121;-81
2022/01/06 00:53:47;;;;;;;9.70;5.12;;;;;;;1.05;77.06;95442.59;1620983;88;21056;-81
2022/01/06 00:56:13;;;;;;;13.75;6.75;;;;;;;1.03;76.84;95429.95;1658527;85;21081;-82
2022/01/06 00:58:38;;;;;;;24.70;12.40;;;;;;;1.03;76.75;95444.02;1674891;85;21764;-82
2022/01/06 01:01:04;;;;;;;11.78;6.67;;;;;;;1.04;76.59;95435.40;1660636;85;21011;-81
2022/01/06 01:03:30;;;;;;;22.58;10.18;;;;;;;1.05;76.83;95436.20;1654695;85;20990;-82
2022/01/06 01:05:56;;;;;;;20.70;9.95;;;;;;;1.04;76.75;95429.00;1613789;87;21464;-82
2022/01/06 01:08:24;;;;;;;15.80;8.35;;;;;;;1.03;76.84;95428.67;1609700;88;21108;-81
2022/01/06 01:10:51;;;;;;;18.15;7.45;;;;;;;1.02;76.92;95428.34;1648440;85;21447;-81
2022/01/06 01:13:26;;;;;;;10.55;6.17;;;;;;;1.02;77.01;95421.16;1645512;85;21129;-82
2022/01/06 01:15:49;;;;;;;13.85;7.20;;;;;;;1.00;76.63;95419.22;1642810;85;21030;-81
2022/01/06 01:18:14;;;;;;;7.47;5.25;;;;;;;1.00;76.76;95422.58;1642517;85;21000;-81
2022/01/06 01:20:40;;;;;;;7.60;4.20;;;;;;;0.97;76.88;95425.41;1643992;85;21056;-81
2022/01/06 01:23:06;;;;;;;4.55;4.10;;;;;;;0.95;76.66;95413.72;1682409;84;21336;-82
2022/01/06 01:25:32;;;;;;;6.03;4.53;;;;;;;0.93;76.86;95408.75;1680491;84;20970;-81
2022/01/06 01:27:58;;;;;;;7.20;3.58;;;;;;;0.91;76.55;95408.09;1685418;83;21302;-82
2022/01/06 01:30:38;;;;;;;5.37;3.50;;;;;;;0.89;76.64;95408.72;1682178;84;21390;-82
2022/01/06 01:32:59;;;;;;;7.22;3.80;;;;;;;0.90;76.53;95415.44;1679566;84;21360;-81
2022/01/06 01:35:30;;;;;;;6.53;3.60;;;;;;;0.89;76.80;95415.11;1681147;84;21007;-81
2022/01/06 01:37:52;;;;;;;9.35;4.58;;;;;;;0.89;76.74;95415.91;1682845;83;21013;-81
2022/01/06 01:40:18;;;;;;;6.45;3.72;;;;;;;0.90;76.57;95424.39;1680500;84;20961;-81
2022/01/06 01:42:44;;;;;;;6.62;2.87;;;;;;;0.92;76.75;95419.13;1664105;85;21021;-81
2022/01/06 01:45:09;;;;;;;3.20;2.90;;;;;;;0.91;76.64;95424.72;1667863;85;21359;-81
2022/01/06 01:47:42;;;;;;;11.73;6.25;;;;;;;0.92;76.54;95428.08;1654466;85;21044;-81
2022/01/06 01:50:16;;;;;;;9.08;5.83;;;;;;;0.90;76.60;95429.03;1670052;84;21044;-82
2022/01/06 01:52:48;;;;;;;11.93;7.30;;;;;;;0.89;76.41;95432.54;1678590;84;21099;-81
2022/01/06 01:55:18;;;;;;;13.45;5.37;;;;;;;0.89;76.46;95425.34;1680759;84;21017;-82
2022/01/06 01:57:44;;;;;;;9.23;6.33;;;;;;;0.89;76.43;95427.91;1680270;84;21020;-81
2022/01/06 02:00:11;;;;;;;16.62;12.43;;;;;;;0.89;76.25;95423.59;1662624;84;21016;-81
2022/01/06 02:02:37;;;;;;;10.18;5.90;;;;;;;0.92;76.52;95428.08;1679089;84;20989;-81
2022/01/06 02:05:04;;;;;;;4.85;4.35;;;;;;;0.94;76.18;95435.94;1681518;84;21525;-81
2022/01/06 02:07:30;;;;;;;6.33;4.45;;;;;;;0.93;76.25;95424.09;1685800;84;21136;-80
2022/01/06 02:09:55;;;;;;;7.58;4.53;;;;;;;0.91;75.98;95424.72;1679146;84;21107;-80
2022/01/06 02:12:28;;;;;;;8.75;5.28;;;;;;;0.99;76.30;95446.55;1678340;83;20918;-81
2022/01/06 02:14:54;;;;;;;10.98;6.20;;;;;;;1.02;76.32;95450.09;1684593;84;21325;-81
2022/01/06 02:17:20;;;;;;;12.28;7.10;;;;;;;1.05;76.54;95452.36;1680447;84;21436;-80
2022/01/06 02:19:56;;;;;;;4.47;3.58;;;;;;;1.08;76.51;95456.38;1684134;84;21040;-80
2022/01/06 02:22:21;;;;;;;5.58;3.58;;;;;;;1.12;76.35;95455.12;1667998;84;21552;-81
2022/01/06 02:24:47;;;;;;;5.67;3.50;;;;;;;1.14;75.98;95455.33;1681443;83;20984;-81
2022/01/06 02:27:13;;;;;;;7.78;4.20;;;;;;;1.18;76.12;95459.67;1673586;83;21062;-81
2022/01/06 02:29:39;;;;;;;5.85;3.30;;;;;;;1.22;75.95;95465.30;1672986;83;21006;-80
2022/01/06 02:32:10;;;;;;;6.05;3.50;;;;;;;1.25;76.27;95458.13;1671643;83;20953;-80
2022/01/06 02:34:36;;;;;;;6.83;3.50;;;;;;;1.29;75.94;95453.03;1672714;83;21009;-80
2022/01/06 02:37:03;;;;;;;5.05;2.87;;;;;;;1.31;75.96;95452.91;1668729;83;21408;-81
2022/01/06 02:39:29;;;;;;;3.90;2.52;;;;;;;1.30;75.81;95459.79;1672310;83;20984;-80
2022/01/06 02:41:56;;;;;;;3.87;2.62;;;;;;;1.33;76.02;95454.84;1671914;83;21012;-81
2022/01/06 02:44:24;;;;;;;4.85;2.77;;;;;;;1.34;75.85;95457.26;1670058;83;21047;-81
2022/01/06 02:46:50;;;;;;;4.80;2.80;;;;;;;1.36;75.87;95460.95;1654416;83;21372;-81
2022/01/06 02:49:16;;;;;;;3.45;2.83;;;;;;;1.36;75.55;95459.19;1662284;83;21063;-80
2022/01/06 02:51:42;;;;;;;4.22;3.02;;;;;;;1.38;75.70;95462.88;1671242;83;21046;-80
2022/01/06 02:54:08;;;;;;;5.35;2.80;;;;;;;1.40;75.88;95468.65;1631086;84;20995;-81
2022/01/06 02:56:33;;;;;;;5.37;2.77;;;;;;;1.40;75.46;95465.61;1673047;83;21427;-81
2022/01/06 02:58:59;;;;;;;5.12;2.90;;;;;;;1.41;75.62;95464.66;1673247;83;20992;-80
2022/01/06 03:01:25;;;;;;;5.35;2.67;;;;;;;1.43;75.54;95455.55;1672655;83;21063;-80
2022/01/06 03:03:50;;;;;;;6.87;3.80;;;;;;;1.45;75.46;95460.84;1671642;83;21990;-80
2022/01/06 03:06:16;;;;;;;8.68;5.00;;;;;;;1.47;75.55;95453.05;1669230;83;21060;-81
2022/01/06 03:08:42;;;;;;;6.22;4.17;;;;;;;1.46;75.33;95452.24;1661475;84;21064;-80
2022/01/06 03:11:08;;;;;;;3.98;2.87;;;;;;;1.48;75.48;95455.45;1670183;83;21370;-80
2022/01/06 03:13:34;;;;;;;6.05;3.08;;;;;;;1.47;75.42;95458.97;1669719;83;21487;-81
2022/01/06 03:16:01;;;;;;;4.12;3.05;;;;;;;1.50;75.56;95451.46;1672000;83;21781;-80
2022/01/06 03:18:27;;;;;;;5.65;2.95;;;;;;;1.54;75.67;95455.33;1672013;83;21048;-80
2022/01/06 03:20:53;;;;;;;5.22;2.60;;;;;;;1.54;75.38;95454.52;1678557;83;21007;-81
2022/01/06 03:23:19;;;;;;;4.35;2.70;;;;;;;1.54;75.40;95457.89;1673557;83;21059;-81
2022/01/06 03:25:45;;;;;;;9.90;4.42;;;;;;;1.52;75.18;95461.55;1650801;85;21024;-80
2022/01/06 03:28:11;;;;;;;8.48;4.33;;;;;;;1.53;75.57;95469.08;1674845;84;20996;-81
2022/01/06 03:30:37;;;;;;;6.87;3.35;;;;;;;1.53;75.34;95465.24;1675782;84;21396;-80
2022/01/06 03:33:02;;;;;;;4.42;2.37;;;;;;;1.54;75.28;95469.89;1682335;84;20985;-81
2022/01/06 03:35:28;;;;;;;3.70;2.30;;;;;;;1.55;75.29;95475.33;1680633;84;20990;-81
2022/01/06 03:37:54;;;;;;;3.67;2.75;;;;;;;1.54;74.91;95475.81;1683189;83;20999;-80
2022/01/06 03:40:20;;;;;;;3.12;2.60;;;;;;;1.54;75.40;95468.61;1681860;84;20926;-81
2022/01/06 03:42:46;;;;;;;6.97;3.37;;;;;;;1.54;75.39;95462.20;1642782;85;21535;-81
2022/01/06 03:45:15;;;;;;;4.72;2.90;;;;;;;1.54;75.67;95473.25;1639893;86;21075;-81
2022/01/06 03:47:41;;;;;;;3.45;2.62;;;;;;;1.54;75.61;95466.84;1638731;86;21030;-81
2022/01/06 03:50:08;;;;;;;3.67;2.95;;;;;;;1.55;75.61;95473.58;1639930;86;21040;-81
2022/01/06 03:52:34;;;;;;;2.80;2.55;;;;;;;1.55;75.66;95476.61;1674606;83;21505;-80
2022/01/06 03:55:00;;;;;;;4.87;2.60;;;;;;;1.58;75.82;95484.80;1677414;84;21012;-81
2022/01/06 03:57:25;;;;;;;3.55;2.60;;;;;;;1.58;75.64;95482.71;1676026;84;21425;-81
2022/01/06 03:59:51;;;;;;;7.20;3.05;;;;;;;1.59;75.79;95486.88;1678350;84;21025;-81
2022/01/06 04:02:17;;;;;;;6.15;3.20;;;;;;;1.60;75.76;95482.08;1679312;84;21011;-80
2022/01/06 04:04:42;;;;;;;7.08;3.98;;;;;;;1.61;75.84;95479.38;1656796;84;20996;-80
2022/01/06 04:07:08;;;;;;;3.55;2.40;;;;;;;1.60;75.69;95466.24;1672542;84;21327;-81
2022/01/06 04:09:34;;;;;;;3.37;2.10;;;;;;;1.61;75.97;95470.89;1685611;84;20977;-81
2022/01/06 04:11:59;;;;;;;5.50;3.00;;;;;;;1.61;75.93;95475.53;1678333;84;20996;-80
2022/01/06 04:14:25;;;;;;;4.25;2.52;;;;;;;1.63;75.96;95484.38;1681188;84;21356;-80
2022/01/06 04:16:58;;;;;;;4.65;2.50;;;;;;;1.64;76.02;95488.06;1680322;83;20970;-81
2022/01/06 04:19:18;;;;;;;4.60;2.87;;;;;;;1.66;76.07;95484.07;1652921;84;21383;-81
2022/01/06 04:21:44;;;;;;;3.40;2.12;;;;;;;1.66;76.07;95496.39;1657133;83;20981;-81
2022/01/06 04:24:10;;;;;;;4.87;3.08;;;;;;;1.66;75.95;95496.39;1675101;83;21020;-80
2022/01/06 04:26:36;;;;;;;6.50;3.45;;;;;;;1.66;76.17;95514.32;1676039;83;21115;-81
2022/01/06 04:29:02;;;;;;;3.47;2.55;;;;;;;1.64;75.99;95512.87;1673820;83;21071;-81
2022/01/06 04:31:27;;;;;;;4.25;2.83;;;;;;;1.64;76.15;95516.70;1670284;83;21069;-81
2022/01/06 04:33:53;;;;;;;4.22;2.80;;;;;;;1.66;76.25;95517.36;1672155;83;21054;-81
2022/01/06 04:36:20;;;;;;;6.42;3.02;;;;;;;1.66;76.09;95519.45;1673402;83;21434;-80
2022/01/06 04:38:46;;;;;;;4.45;3.35;;;;;;;1.66;76.04;95529.69;1670029;83;21047;-80
2022/01/06 04:41:11;;;;;;;4.78;2.50;;;;;;;1.67;76.09;95518.97;1681890;83;21568;-80
2022/01/06 04:43:38;;;;;;;5.97;3.17;;;;;;;1.65;76.27;95528.08;1676370;83;21046;-81
2022/01/06 04:46:04;;;;;;;4.35;2.95;;;;;;;1.66;76.08;95532.25;1670407;83;21482;-81
2022/01/06 04:48:30;;;;;;;5.83;3.87;;;;;;;1.66;76.28;95531.45;1673151;83;20964;-81
2022/01/06 04:50:55;;;;;;;5.53;3.10;;;;;;;1.67;76.21;95528.73;1673360;83;21056;-82
2022/01/06 04:53:21;;;;;;;3.80;2.42;;;;;;;1.68;76.22;95530.82;1667967;83;21062;-82
2022/01/06 04:55:47;;;;;;;4.30;2.85;;;;;;;1.68;76.15;95529.53;1671074;83;21007;-81
2022/01/06 04:58:12;;;;;;;4.87;2.92;;;;;;;1.69;76.48;95526.83;1674212;83;20980;-81
2022/01/06 05:00:38;;;;;;;4.65;2.90;;;;;;;1.69;76.23;95526.83;1672946;83;20984;-81
2022/01/06 05:03:04;;;;;;;4.37;2.60;;;;;;;1.67;76.13;95524.09;1670257;83;20961;-81
2022/01/06 05:05:29;;;;;;;5.22;3.37;;;;;;;1.67;76.23;95517.69;1668771;83;20976;-81
2022/01/06 05:07:55;;;;;;;4.83;3.52;;;;;;;1.67;76.30;95511.28;1652871;84;21055;-82
2022/01/06 05:10:21;;;;;;;4.67;2.85;;;;;;;1.67;76.36;95516.41;1671843;83;21045;-81
2022/01/06 05:12:47;;;;;;;2.65;2.12;;;;;;;1.66;76.34;95517.36;1671541;83;21048;-81
2022/01/06 05:15:13;;;;;;;3.75;2.70;;;;;;;1.67;76.20;95518.97;1672452;83;21566;-81
2022/01/06 05:17:41;;;;;;;3.92;3.27;;;;;;;1.67;76.27;95522.33;1670785;83;21055;-81
2022/01/06 05:20:07;;;;;;;5.28;3.00;;;;;;;1.71;76.49;95518.99;1669290;83;21438;-81
2022/01/06 05:22:34;;;;;;;6.03;2.87;;;;;;;1.72;76.49;95529.56;1670382;83;21521;-82
2022/01/06 05:25:01;;;;;;;5.00;2.58;;;;;;;1.73;76.42;95526.85;1679926;84;21085;-81
2022/01/06 05:27:27;;;;;;;5.37;3.05;;;;;;;1.74;76.22;95523.34;1676450;84;21593;-81
2022/01/06 05:29:54;;;;;;;5.20;2.83;;;;;;;1.76;76.07;95535.99;1685347;83;21063;-81
2022/01/06 05:32:19;;;;;;;3.08;2.60;;;;;;;1.74;75.66;95528.94;1655508;83;21032;-81
2022/01/06 05:34:45;;;;;;;2.40;2.30;;;;;;;1.75;75.74;95533.91;1673461;83;21994;-81
2022/01/06 05:37:11;;;;;;;4.10;2.98;;;;;;;1.77;75.76;95536.31;1674015;83;21029;-81
2022/01/06 05:39:36;;;;;;;3.80;2.47;;;;;;;1.78;75.65;95535.36;1658369;83;20991;-81
2022/01/06 05:42:03;;;;;;;5.10;2.60;;;;;;;1.79;75.69;95542.92;1672584;83;21007;-81
2022/01/06 05:44:32;;;;;;;5.30;4.03;;;;;;;1.80;75.80;95538.12;1675774;84;21050;-81
2022/01/06 05:46:56;;;;;;;4.28;2.65;;;;;;;1.82;75.75;95540.54;1658066;84;21007;-83
2022/01/06 05:49:22;;;;;;;6.58;2.85;;;;;;;1.84;75.82;95539.11;1652398;84;21401;-81
2022/01/06 05:51:47;;;;;;;4.20;3.20;;;;;;;1.84;75.74;95542.95;1684591;84;21015;-81
2022/01/06 05:54:13;;;;;;;4.97;3.15;;;;;;;1.84;75.58;95539.91;1675942;83;21060;-81
2022/01/06 05:56:39;;;;;;;4.72;2.95;;;;;;;1.84;75.50;95546.31;1677772;83;21055;-81
2022/01/06 05:59:04;;;;;;;3.27;2.27;;;;;;;1.83;75.52;95542.15;1675234;84;21426;-81
2022/01/06 06:01:30;;;;;;;4.45;3.40;;;;;;;1.84;75.50;95541.19;1677603;84;20985;-81
2022/01/06 06:03:56;;;;;;;5.70;2.85;;;;;;;1.85;75.50;95544.56;1675708;84;20990;-81
2022/01/06 06:06:21;;;;;;;4.75;3.22;;;;;;;1.84;75.48;95545.52;1685259;84;21462;-82
2022/01/06 06:08:47;;;;;;;4.53;4.05;;;;;;;1.85;75.61;95544.56;1681596;84;21015;-81
2022/01/06 06:11:13;;;;;;;4.10;2.60;;;;;;;1.86;75.60;95548.73;1681331;84;21333;-81
2022/01/06 06:13:39;;;;;;;3.80;2.40;;;;;;;1.86;75.30;95548.73;1677672;84;21452;-81
2022/01/06 06:16:06;;;;;;;3.90;3.50;;;;;;;1.86;75.25;95549.53;1675189;83;21065;-82
2022/01/06 06:18:31;;;;;;;5.95;2.60;;;;;;;1.85;75.50;95549.20;1677675;84;21087;-81
2022/01/06 06:20:57;;;;;;;5.15;2.87;;;;;;;1.85;75.46;95558.17;1674537;84;21099;-81
2022/01/06 06:23:23;;;;;;;6.55;4.15;;;;;;;1.86;75.54;95558.97;1676769;84;21496;-81
2022/01/06 06:25:49;;;;;;;4.17;2.62;;;;;;;1.89;75.63;95559.95;1673091;85;21047;-81
2022/01/06 06:28:14;;;;;;;4.67;3.27;;;;;;;1.86;75.26;95565.37;1672182;85;21047;-81
2022/01/06 06:30:41;;;;;;;3.80;2.95;;;;;;;1.83;75.50;95560.55;1671111;85;20977;-81
2022/01/06 06:33:07;;;;;;;4.00;2.90;;;;;;;1.87;75.78;95572.11;1672035;85;21059;-81
2022/01/06 06:35:33;;;;;;;4.42;3.15;;;;;;;1.88;75.87;95580.13;1669938;85;21140;-81
2022/01/06 06:37:58;;;;;;;4.90;2.83;;;;;;;1.89;75.93;95570.20;1669495;85;21094;-81
2022/01/06 06:40:24;;;;;;;4.03;3.33;;;;;;;1.90;75.96;95579.02;1668242;85;21098;-81
2022/01/06 06:42:51;;;;;;;3.00;2.70;;;;;;;1.91;76.20;95580.63;1670482;84;20979;-81
2022/01/06 06:45:19;;;;;;;6.03;3.33;;;;;;;1.92;75.92;95589.11;1670522;85;21027;-81
2022/01/06 06:47:46;;;;;;;5.85;3.45;;;;;;;1.92;75.94;95587.36;1669727;84;21063;-81
2022/01/06 06:50:15;;;;;;;6.70;3.77;;;;;;;1.91;76.02;95581.10;1672922;84;21441;-82
2022/01/06 06:52:39;;;;;;;8.75;4.92;;;;;;;1.92;76.17;95590.39;1670744;84;21130;-81
2022/01/06 06:55:05;;;;;;;6.30;3.40;;;;;;;1.92;76.16;95586.55;1674169;84;22305;-81
2022/01/06 06:57:31;;;;;;;7.33;4.03;;;;;;;1.92;76.04;95586.55;1668564;84;21011;-81
2022/01/06 06:59:57;;;;;;;9.40;5.08;;;;;;;1.94;76.23;95600.81;1674423;84;21018;-81
2022/01/06 07:02:22;;;;;;;12.03;5.35;;;;;;;1.95;76.19;95593.48;1675642;84;20991;-81
2022/01/06 07:04:48;;;;;;;11.45;6.17;;;;;;;1.97;76.19;95595.91;1674328;84;20992;-82
2022/01/06 07:07:14;;;;;;;9.05;5.70;;;;;;;1.98;76.31;95605.20;1667265;84;20980;-81
2022/01/06 07:09:39;;;;;;;6.47;4.03;;;;;;;1.96;76.20;95600.70;1676914;84;21450;-81
2022/01/06 07:12:06;;;;;;;6.92;3.92;;;;;;;1.94;76.30;95611.55;1669828;84;21043;-81
2022/01/06 07:14:32;;;;;;;21.02;8.20;;;;;;;1.96;76.41;95610.47;1670458;84;21104;-81
2022/01/06 07:16:58;;;;;;;8.73;5.08;;;;;;;1.96;76.47;95613.51;1677277;84;21366;-81
2022/01/06 07:19:24;;;;;;;13.03;5.67;;;;;;;1.96;76.70;95624.56;1669500;84;21022;-81
2022/01/06 07:21:50;;;;;;;8.10;4.62;;;;;;;1.96;76.92;95618.16;1669877;84;20988;-82
2022/01/06 07:24:18;;;;;;;8.65;4.80;;;;;;;1.97;76.86;95625.37;1677738;84;21029;-82
2022/01/06 07:26:43;;;;;;;8.08;3.83;;;;;;;2.01;76.66;95626.20;1684605;84;21359;-81
2022/01/06 07:29:09;;;;;;;8.58;4.50;;;;;;;2.03;76.71;95631.17;1679790;84;20981;-81
2022/01/06 07:31:35;;;;;;;49.55;21.17;;;;;;;2.04;76.69;95626.37;1678432;84;20957;-81
2022/01/06 07:34:00;;;;;;;8.98;5.17;;;;;;;2.05;76.79;95632.63;1639989;86;21959;-81
2022/01/06 07:36:26;;;;;;;28.17;14.23;;;;;;;2.04;76.41;95626.37;1642852;86;21028;-81
2022/01/06 07:38:52;;;;;;;16.85;8.85;;;;;;;2.04;76.56;95634.06;1634814;86;21120;-81
2022/01/06 07:41:17;;;;;;;61.58;26.48;;;;;;;2.05;76.10;95618.53;1623094;87;21067;-81
2022/01/06 07:43:43;;;;;;;37.78;16.50;;;;;;;2.06;76.41;95631.67;1653738;85;21042;-81
2022/01/06 07:46:09;;;;;;;85.07;34.27;;;;;;;2.09;76.50;95635.70;1677771;84;21104;-81
2022/01/06 07:49:17;;;;;;;201.55;69.00;;;;;;;2.12;76.57;95637.19;1683549;84;21408;-80
2022/01/06 07:51:06;;;;;;;79.30;33.67;;;;;;;2.15;76.54;95653.06;1669158;84;21376;-80
2022/01/06 07:53:31;;;;;;;35.70;18.48;;;;;;;2.17;76.24;95651.63;1679347;84;21047;-80
2022/01/06 07:55:57;;;;;;;96.08;43.92;;;;;;;2.17;76.31;95652.91;1685622;84;20997;-82
2022/01/06 07:58:24;;;;;;;88.60;40.45;;;;;;;2.17;76.57;95653.72;1683941;84;21019;-80
2022/01/06 08:00:50;;;;;;;26.52;15.88;;;;;;;2.18;76.60;95662.21;1678730;84;21025;-80
2022/01/06 08:03:15;;;;;;;18.92;9.68;;;;;;;2.18;76.34;95655.33;1681169;84;20957;-80
2022/01/06 08:05:41;;;;;;;17.70;9.65;;;;;;;2.18;76.48;95664.78;1685803;84;22013;-80
2022/01/06 08:08:07;;;;;;;28.30;16.75;;;;;;;2.16;76.57;95670.05;1684236;84;21018;-80
2022/01/06 08:10:33;;;;;;;18.15;13.05;;;;;;;2.17;76.65;95669.58;1680073;84;21016;-81
2022/01/06 08:12:58;;;;;;;21.70;12.90;;;;;;;2.16;76.57;95665.41;1680376;84;21004;-80
2022/01/06 08:15:24;;;;;;;18.65;12.25;;;;;;;2.17;76.72;95672.94;1676589;84;21025;-80
2022/01/06 08:17:50;;;;;;;28.70;16.60;;;;;;;2.17;76.79;95667.02;1680089;84;21310;-80
2022/01/06 08:20:15;;;;;;;30.70;17.27;;;;;;;2.16;77.02;95673.09;1682722;84;20988;-80
2022/01/06 08:22:41;;;;;;;19.48;11.60;;;;;;;2.16;77.11;95676.46;1685765;84;20962;-80
2022/01/06 08:25:08;;;;;;;43.70;18.65;;;;;;;2.18;76.92;95682.72;1690278;84;20950;-80
2022/01/06 08:27:34;;;;;;;77.65;33.58;;;;;;;2.21;76.85;95682.42;1690931;84;20956;-80
2022/01/06 08:30:00;;;;;;;109.90;42.75;;;;;;;2.21;76.59;95677.29;1688839;84;21010;-80
2022/01/06 08:32:26;;;;;;;109.20;41.75;;;;;;;2.21;76.80;95688.34;1686693;84;20993;-80
2022/01/06 08:34:51;;;;;;;121.82;45.23;;;;;;;2.19;76.95;95689.45;1687645;84;21007;-80
2022/01/06 08:37:17;;;;;;;57.33;20.02;;;;;;;2.21;76.79;95693.95;1689407;84;20981;-80
2022/01/06 08:39:43;;;;;;;103.87;33.63;;;;;;;2.21;76.56;95698.60;1687692;84;21071;-80
2022/01/06 08:42:09;;;;;;;100.65;32.30;;;;;;;2.25;76.80;95693.98;1688094;84;21005;-80
2022/01/06 08:44:37;;;;;;;96.22;32.28;;;;;;;2.28;76.50;95703.97;1683360;84;20993;-80
2022/01/06 08:47:03;;;;;;;192.70;60.30;;;;;;;2.27;76.63;95703.13;1687728;84;21013;-80
2022/01/06 08:49:29;;;;;;;431.52;133.87;;;;;;;2.26;76.65;95700.72;1662729;85;20958;-80
2022/01/06 08:51:54;;;;;;;433.10;129.60;;;;;;;2.26;76.94;95705.37;1691531;84;20984;-80
2022/01/06 08:54:20;;;;;;;124.92;38.70;;;;;;;2.28;76.80;95711.17;1686712;84;21438;-80
2022/01/06 08:56:46;;;;;;;194.35;57.48;;;;;;;2.32;76.79;95717.61;1691250;83;20943;-80
2022/01/06 08:59:12;;;;;;;177.38;50.90;;;;;;;2.36;76.92;95718.12;1688423;84;21033;-81
2022/01/06 09:01:37;;;;;;;173.85;54.95;;;;;;;2.38;76.79;95721.34;1687383;83;20938;-81
2022/01/06 09:04:03;;;;;;;221.37;69.20;;;;;;;2.40;76.86;95724.08;1689424;84;20983;-81
2022/01/06 09:06:29;;;;;;;176.65;54.20;;;;;;;2.43;76.96;95725.54;1687281;84;20993;-81
2022/01/06 09:08:55;;;;;;;141.75;51.25;;;;;;;2.44;77.00;95727.63;1688768;84;21360;-81
2022/01/06 09:11:21;;;;;;;119.22;38.67;;;;;;;2.45;77.13;95722.86;1691033;84;20994;-81
2022/01/06 09:13:46;;;;;;;76.42;28.02;;;;;;;2.45;77.00;95721.58;1687985;84;20984;-81
2022/01/06 09:16:13;;;;;;;88.78;30.65;;;;;;;2.44;76.72;95721.22;1687332;84;20934;-81
2022/01/06 09:18:40;;;;;;;50.28;26.15;;;;;;;2.46;76.71;95725.27;1667802;85;21073;-81
2022/01/06 09:21:06;;;;;;;76.02;34.35;;;;;;;2.48;76.57;95727.20;1688409;84;20985;-81
2022/01/06 09:23:32;;;;;;;144.37;51.80;;;;;;;2.50;76.68;95734.27;1676168;84;21085;-81
2022/01/06 09:25:58;;;;;;;87.92;33.78;;;;;;;2.51;76.63;95728.66;1660356;85;21496;-81
2022/01/06 09:28:23;;;;;;;55.70;22.70;;;;;;;2.51;76.56;95729.95;1642031;85;21032;-81
2022/01/06 09:30:51;;;;;;;58.02;23.80;;;;;;;2.51;76.78;95728.66;1659754;85;21110;-81
2022/01/06 09:33:19;;;;;;;43.13;18.85;;;;;;;2.48;76.71;95727.20;1657398;85;21000;-81
2022/01/06 09:35:47;;;;;;;29.50;12.65;;;;;;;2.47;76.66;95727.36;1657729;85;21033;-81
2022/01/06 09:38:14;;;;;;;40.25;17.25;;;;;;;2.49;76.76;95733.14;1655305;85;21446;-82
2022/01/06 09:40:41;;;;;;;48.42;18.57;;;;;;;2.49;76.71;95733.94;1639666;85;21126;-81
2022/01/06 09:43:06;;;;;;;31.35;13.98;;;;;;;2.49;76.68;95729.30;1662066;85;21157;-81
2022/01/06 09:45:35;;;;;;;55.28;22.75;;;;;;;2.48;76.86;95726.41;1657153;85;21465;-81
2022/01/06 09:48:00;;;;;;;35.85;15.38;;;;;;;2.50;77.16;95732.98;1659286;85;21023;-82
2022/01/06 09:50:26;;;;;;;20.35;8.58;;;;;;;2.49;77.13;95728.02;1659790;85;20973;-81
2022/01/06 09:52:52;;;;;;;18.65;9.00;;;;;;;2.48;76.94;95727.20;1658903;85;21012;-81
2022/01/06 09:55:18;;;;;;;27.75;11.03;;;;;;;2.49;77.09;95719.03;1656679;85;20977;-81
2022/01/06 09:57:57;;;;;;;51.00;20.12;;;;;;;2.50;77.27;95724.49;1654593;85;20957;-81
2022/01/06 10:00:24;;;;;;;32.93;16.07;;;;;;;2.51;77.25;95723.06;1659255;85;21072;-81
2022/01/06 10:02:55;;;;;;;57.93;22.98;;;;;;;2.54;77.29;95725.80;1657519;85;21080;-82
2022/01/06 10:05:22;;;;;;;52.78;18.80;;;;;;;2.56;77.60;95717.00;1659612;85;20995;-81
2022/01/06 10:07:48;;;;;;;37.75;13.53;;;;;;;2.61;77.41;95722.51;1654597;85;21372;-82
2022/01/06 10:10:14;;;;;;;26.00;10.18;;;;;;;2.64;77.27;95731.19;1659755;85;21387;-81
2022/01/06 10:12:41;;;;;;;46.37;18.20;;;;;;;2.70;77.35;95733.63;1659495;85;21070;-81
2022/01/06 10:15:20;;;;;;;48.90;18.82;;;;;;;2.70;77.17;95733.63;1656374;85;21417;-81
2022/01/06 10:17:46;;;;;;;44.70;14.95;;;;;;;2.69;77.11;95727.69;1608897;88;21023;-82
2022/01/06 10:20:16;;;;;;;31.00;12.10;;;;;;;2.68;77.23;95737.62;1659590;85;21065;-81
2022/01/06 10:22:48;;;;;;;21.93;9.95;;;;;;;2.67;77.28;95733.92;1662540;85;21022;-82
2022/01/06 10:25:16;;;;;;;18.52;9.35;;;;;;;2.66;77.43;95737.45;1659521;84;21029;-81
2022/01/06 10:27:44;;;;;;;19.98;10.10;;;;;;;2.67;77.60;95736.49;1654132;85;21050;-81
2022/01/06 10:30:14;;;;;;;18.17;8.93;;;;;;;2.66;77.45;95743.86;1658897;85;21024;-81
2022/01/06 10:32:47;;;;;;;10.13;6.37;;;;;;;2.63;77.35;95748.81;1645124;85;21057;-81
2022/01/06 10:35:17;;;;;;;4.37;3.58;;;;;;;2.57;77.87;95784.01;1655269;85;21063;-81
2022/01/06 10:37:48;;;;;;;3.12;2.42;;;;;;;2.32;78.61;95832.98;1659089;85;21036;-80
2022/01/06 10:40:25;;;;;;;5.10;3.67;;;;;;;1.85;79.50;95832.75;1659044;85;21072;-80
2022/01/06 10:42:55;;;;;;;8.15;5.90;;;;;;;1.38;78.98;95850.67;1660526;85;21035;-80
2022/01/06 10:45:25;;;;;;;5.62;4.60;;;;;;;1.12;79.75;95835.89;1662855;85;21074;-80
2022/01/06 10:47:56;;;;;;;9.30;5.97;;;;;;;0.99;79.59;95849.45;1626317;87;21103;-80
2022/01/06 10:50:32;;;;;;;15.60;7.90;;;;;;;0.88;80.20;95843.19;1617185;88;21000;-80
2022/01/06 10:53:11;;;;;;;21.87;11.73;;;;;;;0.70;80.47;95840.50;1658461;85;21439;-80
2022/01/06 10:55:43;;;;;;;9.80;7.05;;;;;;;0.65;80.77;95838.83;1660562;85;21036;-80
2022/01/06 10:58:13;;;;;;;58.83;30.85;;;;;;;0.66;81.49;95846.02;1662998;85;21459;-81
2022/01/06 11:00:47;;;;;;;46.63;24.10;;;;;;;0.63;81.19;95839.87;1657711;85;21096;-80
2022/01/06 11:03:32;;;;;;;55.85;20.70;;;;;;;0.64;81.53;95838.94;1657357;85;20980;-80
2022/01/06 11:05:56;;;;;;;47.03;26.80;;;;;;;0.61;81.69;95846.41;1653618;85;21616;-79
2022/01/06 11:08:29;;;;;;;37.30;27.10;;;;;;;0.59;82.14;95842.70;1659031;85;21568;-78
2022/01/06 11:13:45;;;;;;;51.60;20.32;;;;;;;0.56;82.15;95851.12;1659783;85;21060;-78
2022/01/06 11:16:14;;;;;;;113.05;46.25;;;;;;;0.55;81.84;95860.53;1657831;85;21046;-79
2022/01/06 11:18:54;;;;;;;128.62;45.65;;;;;;;0.56;82.03;95863.43;1662518;85;20976;-78
2022/01/06 11:21:39;;;;;;;53.25;24.35;;;;;;;0.56;82.14;95871.57;1646590;85;21373;-79
2022/01/06 11:24:19;;;;;;;96.70;36.08;;;;;;;0.54;81.90;95872.17;1663834;85;21515;-80
2022/01/06 11:27:09;;;;;;;88.20;37.15;;;;;;;0.60;82.18;95876.75;1668264;85;21035;-80
2022/01/06 11:29:42;;;;;;;87.85;35.50;;;;;;;0.65;81.63;95885.29;1665654;85;21414;-79
2022/01/06 11:32:21;;;;;;;58.02;24.57;;;;;;;0.69;81.85;95886.66;1664054;85;21051;-80
2022/01/06 11:35:11;;;;;;;71.90;25.15;;;;;;;0.70;81.65;95887.80;1672039;85;20996;-80
2022/01/06 11:37:44;;;;;;;39.75;17.75;;;;;;;0.68;81.40;95893.53;1657248;85;21429;-80
2022/01/06 11:40:14;;;;;;;73.15;32.58;;;;;;;0.69;81.46;95896.89;1666239;84;21036;-81
2022/01/06 11:42:40;;;;;;;72.00;26.05;;;;;;;0.69;81.30;95901.53;1652519;84;21114;-81
2022/01/06 11:45:07;;;;;;;94.32;32.03;;;;;;;0.68;81.27;95906.31;1673145;84;20990;-81